Terminal Aerodrome Forecast
Issued by NWS

Home | Current Version | Previous Version | Graphics & Text | Print | Product List | Glossary On
Versions: 1 2 3 4 5 6 7 8 9 10 11 12 13 14 15 16 17
000
FTUS43 KABR 010500
TAFMBG
TAF
KMBG 010534Z 0106/0206 17010KT P6SM BKN200
     FM011100 21014KT P6SM BKN200
     FM011400 31024G34KT P6SM BKN200
     FM020100 31014KT P6SM BKN200=

USA.gov is the U.S. government's official web portal to all federal, state and local government web resources and services.